메인 페이지
METAR-TAF:

METAR-TAF

공항 :

다마스쿠스 국제공항

다마스쿠스, 시리아

위도: 33-25N, 경도: 036-31E, 고도: 608m

현재 날씨관측

예보는 50분 전, 04:00시(UTC)에 발표되었습니다.
북동6kt
온도 11°C
습도 94%
기압 1019 hPa
시정: 1500m
박무

METAR: OSDI 220400Z 04006KT 1500 BR 11/10 Q1019

시각: 07:50 (04:50 UTC)

예보

예보 대상 시간: 22일 00시부터 23일 06시까지 (UTC)
여러 방향의 바람 3kt
시정: 3000m
박무
일시적
22일 01시부터 22일 06시까지 (UTC)
시정: 0200m
고도 700ft 상공 구름 보통
안개
전환 중
22일 06시부터 22일 08시까지 (UTC)
남서10kt
시정: 8000m
고도 3000ft 상공 구름 조금

TAF: OSDI 2200/2306 VRB03KT 3000 BR TEMPO 2201/2206 0200 FG SCT007 BECMG 2206/2208 22010KT 8000 FEW030

4,000개 이상의 공항 관측 자료 및 예보 (METAR 및 TAF 보고).

지도상에서 검색 가능한 기상관측소가 노란 점과 빨간 점으로 표시되어 있습니다.

기상관측소 명을 보려면 표시 위로 마우스를 이동하세요.

날씨 관측과 예보를 보려면 클릭하세요.

지도 변경 : 확대하려면 엑스 표시가 있는 녹색 버튼, 축소하려면 빼기 표시가 있는 녹색 버튼, 다음 페이지의 지도를 보려면 녹색 화살표를 클릭하세요.


METAR-TAF: